sensor_id;sensor_type;location;lat;lon;timestamp;temperature;humidity
33271;DHT22;53180;51.344;6.152;2022-10-16T00:01:29;13.60;91.10
33271;DHT22;53180;51.344;6.152;2022-10-16T00:03:59;13.60;91.10
33271;DHT22;53180;51.344;6.152;2022-10-16T00:06:29;13.60;91.00
33271;DHT22;53180;51.344;6.152;2022-10-16T00:08:58;13.60;91.00
33271;DHT22;53180;51.344;6.152;2022-10-16T00:11:30;13.50;91.00
33271;DHT22;53180;51.344;6.152;2022-10-16T00:14:01;13.50;91.00
33271;DHT22;53180;51.344;6.152;2022-10-16T00:16:31;13.50;91.00
33271;DHT22;53180;51.344;6.152;2022-10-16T00:18:59;13.50;91.00
33271;DHT22;53180;51.344;6.152;2022-10-16T00:21:29;13.50;91.00
33271;DHT22;53180;51.344;6.152;2022-10-16T00:23:59;13.50;91.10
33271;DHT22;53180;51.344;6.152;2022-10-16T00:26:36;13.60;91.00
33271;DHT22;53180;51.344;6.152;2022-10-16T00:29:05;13.50;90.90
33271;DHT22;53180;51.344;6.152;2022-10-16T00:31:33;13.60;90.80
33271;DHT22;53180;51.344;6.152;2022-10-16T00:34:02;13.50;90.80
33271;DHT22;53180;51.344;6.152;2022-10-16T00:36:31;13.50;90.80
33271;DHT22;53180;51.344;6.152;2022-10-16T00:38:59;13.50;90.70
33271;DHT22;53180;51.344;6.152;2022-10-16T00:41:29;13.50;90.60
33271;DHT22;53180;51.344;6.152;2022-10-16T00:44:00;13.50;90.60
33271;DHT22;53180;51.344;6.152;2022-10-16T00:46:33;13.50;90.60
33271;DHT22;53180;51.344;6.152;2022-10-16T00:49:06;13.50;90.60
33271;DHT22;53180;51.344;6.152;2022-10-16T00:51:37;13.50;90.50
33271;DHT22;53180;51.344;6.152;2022-10-16T00:54:08;13.50;90.50
33271;DHT22;53180;51.344;6.152;2022-10-16T00:56:37;13.50;90.40
33271;DHT22;53180;51.344;6.152;2022-10-16T00:59:12;13.40;90.30
33271;DHT22;53180;51.344;6.152;2022-10-16T01:01:43;13.40;90.30
33271;DHT22;53180;51.344;6.152;2022-10-16T01:04:12;13.40;90.40
33271;DHT22;53180;51.344;6.152;2022-10-16T01:06:47;13.30;90.20
33271;DHT22;53180;51.344;6.152;2022-10-16T01:09:21;13.30;90.20
33271;DHT22;53180;51.344;6.152;2022-10-16T01:11:57;13.30;90.20
33271;DHT22;53180;51.344;6.152;2022-10-16T01:14:39;13.30;90.10
33271;DHT22;53180;51.344;6.152;2022-10-16T01:17:12;13.30;90.20
33271;DHT22;53180;51.344;6.152;2022-10-16T01:19:56;13.20;90.30
33271;DHT22;53180;51.344;6.152;2022-10-16T01:22:37;13.20;90.30
33271;DHT22;53180;51.344;6.152;2022-10-16T01:25:13;13.20;90.40
33271;DHT22;53180;51.344;6.152;2022-10-16T01:27:47;13.10;90.40
33271;DHT22;53180;51.344;6.152;2022-10-16T01:30:18;13.10;90.30
33271;DHT22;53180;51.344;6.152;2022-10-16T01:32:52;13.10;90.40
33271;DHT22;53180;51.344;6.152;2022-10-16T01:35:26;13.00;90.40
33271;DHT22;53180;51.344;6.152;2022-10-16T01:37:59;13.10;90.50
33271;DHT22;53180;51.344;6.152;2022-10-16T01:40:33;13.00;90.50
33271;DHT22;53180;51.344;6.152;2022-10-16T01:43:06;13.00;90.50
33271;DHT22;53180;51.344;6.152;2022-10-16T01:45:37;13.00;90.50
33271;DHT22;53180;51.344;6.152;2022-10-16T01:48:06;13.00;90.50
33271;DHT22;53180;51.344;6.152;2022-10-16T01:50:38;13.00;90.50
33271;DHT22;53180;51.344;6.152;2022-10-16T01:53:10;13.00;90.60
33271;DHT22;53180;51.344;6.152;2022-10-16T01:55:42;13.00;90.60
33271;DHT22;53180;51.344;6.152;2022-10-16T01:58:14;12.90;90.60
33271;DHT22;53180;51.344;6.152;2022-10-16T02:00:44;12.90;90.70
33271;DHT22;53180;51.344;6.152;2022-10-16T02:03:16;12.90;90.70
33271;DHT22;53180;51.344;6.152;2022-10-16T02:05:49;12.90;90.70
33271;DHT22;53180;51.344;6.152;2022-10-16T02:08:19;12.90;90.70
33271;DHT22;53180;51.344;6.152;2022-10-16T02:10:48;12.90;90.60
33271;DHT22;53180;51.344;6.152;2022-10-16T02:13:23;12.90;90.60
33271;DHT22;53180;51.344;6.152;2022-10-16T02:15:54;12.90;90.70
33271;DHT22;53180;51.344;6.152;2022-10-16T02:18:22;12.90;90.70
33271;DHT22;53180;51.344;6.152;2022-10-16T02:20:55;12.90;90.70
33271;DHT22;53180;51.344;6.152;2022-10-16T02:23:33;12.90;90.70
33271;DHT22;53180;51.344;6.152;2022-10-16T02:26:06;13.00;90.60
33271;DHT22;53180;51.344;6.152;2022-10-16T02:28:40;12.90;90.60
33271;DHT22;53180;51.344;6.152;2022-10-16T02:31:11;12.90;90.70
33271;DHT22;53180;51.344;6.152;2022-10-16T02:33:42;13.00;90.60
33271;DHT22;53180;51.344;6.152;2022-10-16T02:36:10;13.00;90.60
33271;DHT22;53180;51.344;6.152;2022-10-16T02:38:40;13.10;90.40
33271;DHT22;53180;51.344;6.152;2022-10-16T02:41:08;13.00;90.40
33271;DHT22;53180;51.344;6.152;2022-10-16T02:43:38;13.10;90.40
33271;DHT22;53180;51.344;6.152;2022-10-16T02:46:07;13.10;90.20
33271;DHT22;53180;51.344;6.152;2022-10-16T02:48:35;13.10;90.30
33271;DHT22;53180;51.344;6.152;2022-10-16T02:51:04;13.00;90.30
33271;DHT22;53180;51.344;6.152;2022-10-16T02:53:32;13.00;90.40
33271;DHT22;53180;51.344;6.152;2022-10-16T02:56:00;13.00;90.40
33271;DHT22;53180;51.344;6.152;2022-10-16T02:58:29;13.00;90.50
33271;DHT22;53180;51.344;6.152;2022-10-16T03:00:58;13.10;90.40
33271;DHT22;53180;51.344;6.152;2022-10-16T03:03:27;13.10;90.40
33271;DHT22;53180;51.344;6.152;2022-10-16T03:05:55;13.10;90.50
33271;DHT22;53180;51.344;6.152;2022-10-16T03:08:23;13.00;90.40
33271;DHT22;53180;51.344;6.152;2022-10-16T03:10:52;13.00;90.40
33271;DHT22;53180;51.344;6.152;2022-10-16T03:13:20;13.00;90.40
33271;DHT22;53180;51.344;6.152;2022-10-16T03:15:48;13.10;90.40
33271;DHT22;53180;51.344;6.152;2022-10-16T03:18:18;13.10;90.30
33271;DHT22;53180;51.344;6.152;2022-10-16T03:20:46;13.10;90.30
33271;DHT22;53180;51.344;6.152;2022-10-16T03:23:15;13.10;90.30
33271;DHT22;53180;51.344;6.152;2022-10-16T03:25:43;13.20;90.20
33271;DHT22;53180;51.344;6.152;2022-10-16T03:28:14;13.10;90.20
33271;DHT22;53180;51.344;6.152;2022-10-16T03:30:43;13.20;90.10
33271;DHT22;53180;51.344;6.152;2022-10-16T03:33:11;13.10;90.10
33271;DHT22;53180;51.344;6.152;2022-10-16T03:35:41;13.10;90.20
33271;DHT22;53180;51.344;6.152;2022-10-16T03:38:09;13.00;90.30
33271;DHT22;53180;51.344;6.152;2022-10-16T03:40:37;13.10;90.30
33271;DHT22;53180;51.344;6.152;2022-10-16T03:43:06;13.10;90.30
33271;DHT22;53180;51.344;6.152;2022-10-16T03:45:34;13.00;90.40
33271;DHT22;53180;51.344;6.152;2022-10-16T03:48:02;13.00;90.40
33271;DHT22;53180;51.344;6.152;2022-10-16T03:50:31;13.00;90.40
33271;DHT22;53180;51.344;6.152;2022-10-16T03:53:00;13.00;90.40
33271;DHT22;53180;51.344;6.152;2022-10-16T03:55:29;13.00;90.50
33271;DHT22;53180;51.344;6.152;2022-10-16T03:57:57;13.00;90.50
33271;DHT22;53180;51.344;6.152;2022-10-16T04:00:25;13.00;90.50
33271;DHT22;53180;51.344;6.152;2022-10-16T04:02:54;13.00;90.50
33271;DHT22;53180;51.344;6.152;2022-10-16T04:05:22;13.00;90.50
33271;DHT22;53180;51.344;6.152;2022-10-16T04:07:50;13.00;90.50
33271;DHT22;53180;51.344;6.152;2022-10-16T04:10:20;13.00;90.50
33271;DHT22;53180;51.344;6.152;2022-10-16T04:12:48;12.90;90.60
33271;DHT22;53180;51.344;6.152;2022-10-16T04:15:16;12.90;90.70
33271;DHT22;53180;51.344;6.152;2022-10-16T04:17:45;12.90;90.70
33271;DHT22;53180;51.344;6.152;2022-10-16T04:20:13;12.90;90.80
33271;DHT22;53180;51.344;6.152;2022-10-16T04:22:41;12.90;90.80
33271;DHT22;53180;51.344;6.152;2022-10-16T04:25:10;12.90;90.80
33271;DHT22;53180;51.344;6.152;2022-10-16T04:27:40;12.90;90.70
33271;DHT22;53180;51.344;6.152;2022-10-16T04:30:12;12.90;90.80
33271;DHT22;53180;51.344;6.152;2022-10-16T04:32:40;12.80;90.80
33271;DHT22;53180;51.344;6.152;2022-10-16T04:35:09;12.80;90.90
33271;DHT22;53180;51.344;6.152;2022-10-16T04:37:37;12.80;90.90
33271;DHT22;53180;51.344;6.152;2022-10-16T04:40:06;12.80;91.00
33271;DHT22;53180;51.344;6.152;2022-10-16T04:42:35;12.80;91.00
33271;DHT22;53180;51.344;6.152;2022-10-16T04:45:06;12.80;91.00
33271;DHT22;53180;51.344;6.152;2022-10-16T04:47:40;12.80;91.10
33271;DHT22;53180;51.344;6.152;2022-10-16T04:50:09;12.80;91.00
33271;DHT22;53180;51.344;6.152;2022-10-16T04:52:37;12.80;91.00
33271;DHT22;53180;51.344;6.152;2022-10-16T04:55:06;12.80;91.00
33271;DHT22;53180;51.344;6.152;2022-10-16T04:57:35;12.80;91.00
33271;DHT22;53180;51.344;6.152;2022-10-16T05:00:05;12.90;91.00
33271;DHT22;53180;51.344;6.152;2022-10-16T05:02:34;12.90;90.90
33271;DHT22;53180;51.344;6.152;2022-10-16T05:05:03;12.90;91.00
33271;DHT22;53180;51.344;6.152;2022-10-16T05:07:32;12.90;91.00
33271;DHT22;53180;51.344;6.152;2022-10-16T05:10:00;12.90;91.00
33271;DHT22;53180;51.344;6.152;2022-10-16T05:12:29;12.90;90.90
33271;DHT22;53180;51.344;6.152;2022-10-16T05:14:57;12.90;90.90
33271;DHT22;53180;51.344;6.152;2022-10-16T05:17:27;12.90;91.00
33271;DHT22;53180;51.344;6.152;2022-10-16T05:19:55;12.90;91.00
33271;DHT22;53180;51.344;6.152;2022-10-16T05:22:24;12.90;91.00
33271;DHT22;53180;51.344;6.152;2022-10-16T05:24:53;12.90;91.00
33271;DHT22;53180;51.344;6.152;2022-10-16T05:27:21;12.90;91.00
33271;DHT22;53180;51.344;6.152;2022-10-16T05:29:50;12.90;91.00
33271;DHT22;53180;51.344;6.152;2022-10-16T05:32:18;12.90;91.00
33271;DHT22;53180;51.344;6.152;2022-10-16T05:34:48;12.90;91.00
33271;DHT22;53180;51.344;6.152;2022-10-16T05:37:16;12.90;91.00
33271;DHT22;53180;51.344;6.152;2022-10-16T05:39:45;12.90;91.00
33271;DHT22;53180;51.344;6.152;2022-10-16T05:42:13;12.90;90.90
33271;DHT22;53180;51.344;6.152;2022-10-16T05:44:41;12.90;90.90
33271;DHT22;53180;51.344;6.152;2022-10-16T05:47:09;12.90;90.90
33271;DHT22;53180;51.344;6.152;2022-10-16T05:49:38;12.90;91.00
33271;DHT22;53180;51.344;6.152;2022-10-16T05:52:08;12.90;91.00
33271;DHT22;53180;51.344;6.152;2022-10-16T05:54:37;12.90;91.00
33271;DHT22;53180;51.344;6.152;2022-10-16T05:57:05;12.90;91.10
33271;DHT22;53180;51.344;6.152;2022-10-16T05:59:33;12.90;91.10
33271;DHT22;53180;51.344;6.152;2022-10-16T06:02:01;12.80;91.10
33271;DHT22;53180;51.344;6.152;2022-10-16T06:04:30;12.90;91.10
33271;DHT22;53180;51.344;6.152;2022-10-16T06:06:59;12.90;91.20
33271;DHT22;53180;51.344;6.152;2022-10-16T06:09:29;12.90;91.20
33271;DHT22;53180;51.344;6.152;2022-10-16T06:11:57;12.90;91.20
33271;DHT22;53180;51.344;6.152;2022-10-16T06:14:26;12.90;91.20
33271;DHT22;53180;51.344;6.152;2022-10-16T06:16:54;12.90;91.30
33271;DHT22;53180;51.344;6.152;2022-10-16T06:19:23;12.90;91.30
33271;DHT22;53180;51.344;6.152;2022-10-16T06:21:51;12.90;91.30
33271;DHT22;53180;51.344;6.152;2022-10-16T06:24:19;12.90;91.30
33271;DHT22;53180;51.344;6.152;2022-10-16T06:26:49;12.90;91.30
33271;DHT22;53180;51.344;6.152;2022-10-16T06:29:17;13.00;91.30
33271;DHT22;53180;51.344;6.152;2022-10-16T06:31:46;12.90;91.20
33271;DHT22;53180;51.344;6.152;2022-10-16T06:34:14;12.90;91.20
33271;DHT22;53180;51.344;6.152;2022-10-16T06:36:42;12.90;91.20
33271;DHT22;53180;51.344;6.152;2022-10-16T06:39:10;12.90;91.20
33271;DHT22;53180;51.344;6.152;2022-10-16T06:41:39;12.90;91.30
33271;DHT22;53180;51.344;6.152;2022-10-16T06:44:08;12.90;91.40
33271;DHT22;53180;51.344;6.152;2022-10-16T06:46:37;12.90;91.40
33271;DHT22;53180;51.344;6.152;2022-10-16T06:49:05;12.80;91.30
33271;DHT22;53180;51.344;6.152;2022-10-16T06:51:33;12.90;91.30
33271;DHT22;53180;51.344;6.152;2022-10-16T06:54:08;12.80;91.30
33271;DHT22;53180;51.344;6.152;2022-10-16T06:56:37;12.80;91.40
33271;DHT22;53180;51.344;6.152;2022-10-16T06:59:11;12.80;91.40
33271;DHT22;53180;51.344;6.152;2022-10-16T07:01:39;12.80;91.40
33271;DHT22;53180;51.344;6.152;2022-10-16T07:04:10;12.80;91.40
33271;DHT22;53180;51.344;6.152;2022-10-16T07:06:41;12.80;91.50
33271;DHT22;53180;51.344;6.152;2022-10-16T07:09:10;12.80;91.50
33271;DHT22;53180;51.344;6.152;2022-10-16T07:11:39;12.80;91.60
33271;DHT22;53180;51.344;6.152;2022-10-16T07:14:15;12.90;91.70
33271;DHT22;53180;51.344;6.152;2022-10-16T07:16:45;12.90;91.70
33271;DHT22;53180;51.344;6.152;2022-10-16T07:19:14;13.00;91.60
33271;DHT22;53180;51.344;6.152;2022-10-16T07:21:44;13.10;91.50
33271;DHT22;53180;51.344;6.152;2022-10-16T07:24:14;13.20;91.40
33271;DHT22;53180;51.344;6.152;2022-10-16T07:26:45;13.30;91.30
33271;DHT22;53180;51.344;6.152;2022-10-16T07:29:16;13.40;91.20
33271;DHT22;53180;51.344;6.152;2022-10-16T07:31:45;13.50;90.90
33271;DHT22;53180;51.344;6.152;2022-10-16T07:34:15;13.50;90.60
33271;DHT22;53180;51.344;6.152;2022-10-16T07:36:47;13.70;90.50
33271;DHT22;53180;51.344;6.152;2022-10-16T07:39:15;13.70;90.40
33271;DHT22;53180;51.344;6.152;2022-10-16T07:41:44;13.80;90.10
33271;DHT22;53180;51.344;6.152;2022-10-16T07:44:12;13.90;90.40
33271;DHT22;53180;51.344;6.152;2022-10-16T07:46:42;14.00;90.10
33271;DHT22;53180;51.344;6.152;2022-10-16T07:49:10;14.20;89.80
33271;DHT22;53180;51.344;6.152;2022-10-16T07:51:38;14.20;89.00
33271;DHT22;53180;51.344;6.152;2022-10-16T07:54:08;14.30;89.00
33271;DHT22;53180;51.344;6.152;2022-10-16T07:56:36;14.40;89.10
33271;DHT22;53180;51.344;6.152;2022-10-16T07:59:09;14.50;88.90
33271;DHT22;53180;51.344;6.152;2022-10-16T08:01:38;14.70;88.90
33271;DHT22;53180;51.344;6.152;2022-10-16T08:04:08;14.80;88.60
33271;DHT22;53180;51.344;6.152;2022-10-16T08:06:38;14.90;88.40
33271;DHT22;53180;51.344;6.152;2022-10-16T08:09:08;15.00;88.00
33271;DHT22;53180;51.344;6.152;2022-10-16T08:11:37;15.10;87.60
33271;DHT22;53180;51.344;6.152;2022-10-16T08:14:05;15.20;87.90
33271;DHT22;53180;51.344;6.152;2022-10-16T08:16:33;15.30;87.80
33271;DHT22;53180;51.344;6.152;2022-10-16T08:19:02;15.40;87.00
33271;DHT22;53180;51.344;6.152;2022-10-16T08:21:31;15.60;87.10
33271;DHT22;53180;51.344;6.152;2022-10-16T08:24:00;15.70;86.50
33271;DHT22;53180;51.344;6.152;2022-10-16T08:26:28;15.80;85.70
33271;DHT22;53180;51.344;6.152;2022-10-16T08:28:57;15.90;86.50
33271;DHT22;53180;51.344;6.152;2022-10-16T08:31:25;16.00;85.30
33271;DHT22;53180;51.344;6.152;2022-10-16T08:33:54;16.00;85.10
33271;DHT22;53180;51.344;6.152;2022-10-16T08:36:22;16.00;84.90
33271;DHT22;53180;51.344;6.152;2022-10-16T08:38:52;16.20;85.20
33271;DHT22;53180;51.344;6.152;2022-10-16T08:41:37;16.40;84.20
33271;DHT22;53180;51.344;6.152;2022-10-16T08:47:39;16.50;83.70
33271;DHT22;53180;51.344;6.152;2022-10-16T08:50:17;16.70;82.90
33271;DHT22;53180;51.344;6.152;2022-10-16T08:52:48;16.90;82.80
33271;DHT22;53180;51.344;6.152;2022-10-16T08:55:30;16.90;82.50
33271;DHT22;53180;51.344;6.152;2022-10-16T08:58:01;17.00;82.50
33271;DHT22;53180;51.344;6.152;2022-10-16T09:00:30;17.00;82.30
33271;DHT22;53180;51.344;6.152;2022-10-16T09:03:05;17.10;81.90
33271;DHT22;53180;51.344;6.152;2022-10-16T09:05:54;17.20;81.80
33271;DHT22;53180;51.344;6.152;2022-10-16T09:08:33;17.40;81.60
33271;DHT22;53180;51.344;6.152;2022-10-16T09:11:14;17.70;80.40
33271;DHT22;53180;51.344;6.152;2022-10-16T09:13:50;17.80;80.40
33271;DHT22;53180;51.344;6.152;2022-10-16T09:16:27;17.80;79.90
33271;DHT22;53180;51.344;6.152;2022-10-16T09:19:03;17.90;79.90
33271;DHT22;53180;51.344;6.152;2022-10-16T09:21:40;17.90;79.90
33271;DHT22;53180;51.344;6.152;2022-10-16T09:24:11;18.00;79.70
33271;DHT22;53180;51.344;6.152;2022-10-16T09:26:43;18.00;79.10
33271;DHT22;53180;51.344;6.152;2022-10-16T09:29:13;18.10;79.80
33271;DHT22;53180;51.344;6.152;2022-10-16T09:31:42;18.20;79.50
33271;DHT22;53180;51.344;6.152;2022-10-16T09:34:29;18.30;77.90
33271;DHT22;53180;51.344;6.152;2022-10-16T09:36:59;18.40;76.90
33271;DHT22;53180;51.344;6.152;2022-10-16T09:39:31;18.50;77.30
33271;DHT22;53180;51.344;6.152;2022-10-16T09:42:14;18.60;77.70
33271;DHT22;53180;51.344;6.152;2022-10-16T09:44:47;18.80;76.10
33271;DHT22;53180;51.344;6.152;2022-10-16T09:47:19;18.80;74.90
33271;DHT22;53180;51.344;6.152;2022-10-16T09:49:54;18.80;75.20
33271;DHT22;53180;51.344;6.152;2022-10-16T09:52:25;18.90;74.80
33271;DHT22;53180;51.344;6.152;2022-10-16T09:54:54;18.90;75.00
33271;DHT22;53180;51.344;6.152;2022-10-16T09:57:25;19.10;73.70
33271;DHT22;53180;51.344;6.152;2022-10-16T09:59:56;19.10;74.30
33271;DHT22;53180;51.344;6.152;2022-10-16T10:02:27;19.10;73.60
33271;DHT22;53180;51.344;6.152;2022-10-16T10:04:58;19.00;73.90
33271;DHT22;53180;51.344;6.152;2022-10-16T10:07:27;19.20;73.90
33271;DHT22;53180;51.344;6.152;2022-10-16T10:09:57;19.20;72.70
33271;DHT22;53180;51.344;6.152;2022-10-16T10:12:28;19.30;71.60
33271;DHT22;53180;51.344;6.152;2022-10-16T10:15:04;19.20;72.50
33271;DHT22;53180;51.344;6.152;2022-10-16T10:17:46;19.10;70.90
33271;DHT22;53180;51.344;6.152;2022-10-16T10:20:27;19.10;72.80
33271;DHT22;53180;51.344;6.152;2022-10-16T10:22:57;19.50;72.70
33271;DHT22;53180;51.344;6.152;2022-10-16T10:25:37;19.60;71.50
33271;DHT22;53180;51.344;6.152;2022-10-16T10:28:24;19.80;71.90
33271;DHT22;53180;51.344;6.152;2022-10-16T10:31:16;19.80;70.90
33271;DHT22;53180;51.344;6.152;2022-10-16T10:33:54;19.70;72.10
33271;DHT22;53180;51.344;6.152;2022-10-16T10:36:29;19.50;70.10
33271;DHT22;53180;51.344;6.152;2022-10-16T10:39:01;19.60;70.70
33271;DHT22;53180;51.344;6.152;2022-10-16T10:41:54;19.80;69.90
33271;DHT22;53180;51.344;6.152;2022-10-16T10:44:43;20.00;69.20
33271;DHT22;53180;51.344;6.152;2022-10-16T10:47:29;20.30;69.40
33271;DHT22;53180;51.344;6.152;2022-10-16T10:50:07;20.40;70.20
33271;DHT22;53180;51.344;6.152;2022-10-16T10:52:58;20.30;68.70
33271;DHT22;53180;51.344;6.152;2022-10-16T10:55:37;20.30;69.80
33271;DHT22;53180;51.344;6.152;2022-10-16T10:58:21;20.30;68.30
33271;DHT22;53180;51.344;6.152;2022-10-16T11:01:12;19.70;66.30
33271;DHT22;53180;51.344;6.152;2022-10-16T11:04:01;19.00;68.80
33271;DHT22;53180;51.344;6.152;2022-10-16T11:06:42;18.80;70.00
33271;DHT22;53180;51.344;6.152;2022-10-16T11:09:15;18.80;71.50
33271;DHT22;53180;51.344;6.152;2022-10-16T11:11:51;18.80;71.60
33271;DHT22;53180;51.344;6.152;2022-10-16T11:14:25;19.10;72.90
33271;DHT22;53180;51.344;6.152;2022-10-16T11:16:59;19.20;71.50
33271;DHT22;53180;51.344;6.152;2022-10-16T11:19:37;19.30;71.10
33271;DHT22;53180;51.344;6.152;2022-10-16T11:22:13;19.40;70.40
33271;DHT22;53180;51.344;6.152;2022-10-16T11:24:48;19.30;69.50
33271;DHT22;53180;51.344;6.152;2022-10-16T11:27:29;19.30;70.00
33271;DHT22;53180;51.344;6.152;2022-10-16T11:30:06;19.50;70.20
33271;DHT22;53180;51.344;6.152;2022-10-16T11:32:52;19.30;69.80
33271;DHT22;53180;51.344;6.152;2022-10-16T11:35:33;19.20;70.70
33271;DHT22;53180;51.344;6.152;2022-10-16T11:38:14;19.10;69.60
33271;DHT22;53180;51.344;6.152;2022-10-16T11:40:52;19.00;70.50
33271;DHT22;53180;51.344;6.152;2022-10-16T11:43:27;18.80;72.00
33271;DHT22;53180;51.344;6.152;2022-10-16T11:46:03;18.80;70.80
33271;DHT22;53180;51.344;6.152;2022-10-16T11:48:43;18.70;71.20
33271;DHT22;53180;51.344;6.152;2022-10-16T11:51:20;18.70;72.10
33271;DHT22;53180;51.344;6.152;2022-10-16T11:53:56;18.60;71.20
33271;DHT22;53180;51.344;6.152;2022-10-16T11:56:30;18.50;72.70
33271;DHT22;53180;51.344;6.152;2022-10-16T11:59:02;18.60;72.90
33271;DHT22;53180;51.344;6.152;2022-10-16T12:01:37;18.80;72.80
33271;DHT22;53180;51.344;6.152;2022-10-16T12:04:22;18.90;72.70
33271;DHT22;53180;51.344;6.152;2022-10-16T12:07:01;18.90;73.10
33271;DHT22;53180;51.344;6.152;2022-10-16T12:09:34;19.00;71.00
33271;DHT22;53180;51.344;6.152;2022-10-16T12:15:15;18.90;71.90
33271;DHT22;53180;51.344;6.152;2022-10-16T12:17:56;18.80;72.20
33271;DHT22;53180;51.344;6.152;2022-10-16T12:20:28;18.90;71.50
33271;DHT22;53180;51.344;6.152;2022-10-16T12:23:00;18.90;70.50
33271;DHT22;53180;51.344;6.152;2022-10-16T12:25:32;19.00;71.10
33271;DHT22;53180;51.344;6.152;2022-10-16T12:28:02;19.10;71.00
33271;DHT22;53180;51.344;6.152;2022-10-16T12:30:33;19.00;70.70
33271;DHT22;53180;51.344;6.152;2022-10-16T12:33:04;18.90;71.30
33271;DHT22;53180;51.344;6.152;2022-10-16T12:35:43;18.80;71.50
33271;DHT22;53180;51.344;6.152;2022-10-16T12:38:17;18.80;72.10
33271;DHT22;53180;51.344;6.152;2022-10-16T12:40:55;18.80;70.90
33271;DHT22;53180;51.344;6.152;2022-10-16T12:43:35;18.80;71.30
33271;DHT22;53180;51.344;6.152;2022-10-16T12:46:22;18.80;71.50
33271;DHT22;53180;51.344;6.152;2022-10-16T12:49:21;18.80;71.90
33271;DHT22;53180;51.344;6.152;2022-10-16T12:51:58;18.80;71.20
33271;DHT22;53180;51.344;6.152;2022-10-16T12:54:29;18.90;70.80
33271;DHT22;53180;51.344;6.152;2022-10-16T12:57:13;18.90;70.70
33271;DHT22;53180;51.344;6.152;2022-10-16T12:59:57;18.90;71.30
33271;DHT22;53180;51.344;6.152;2022-10-16T13:03:01;18.80;71.80
33271;DHT22;53180;51.344;6.152;2022-10-16T13:05:54;18.70;72.10
33271;DHT22;53180;51.344;6.152;2022-10-16T13:08:46;18.70;72.00
33271;DHT22;53180;51.344;6.152;2022-10-16T13:11:58;18.70;71.70
33271;DHT22;53180;51.344;6.152;2022-10-16T13:17:54;18.50;72.40
33271;DHT22;53180;51.344;6.152;2022-10-16T13:20:32;18.40;72.00
33271;DHT22;53180;51.344;6.152;2022-10-16T13:23:09;18.40;71.20
33271;DHT22;53180;51.344;6.152;2022-10-16T13:25:53;18.40;71.10
33271;DHT22;53180;51.344;6.152;2022-10-16T13:28:30;18.40;71.90
33271;DHT22;53180;51.344;6.152;2022-10-16T13:31:01;18.40;71.30
33271;DHT22;53180;51.344;6.152;2022-10-16T13:33:32;18.50;71.50
33271;DHT22;53180;51.344;6.152;2022-10-16T13:36:03;18.50;71.10
33271;DHT22;53180;51.344;6.152;2022-10-16T13:38:33;18.50;71.60
33271;DHT22;53180;51.344;6.152;2022-10-16T13:41:06;18.50;71.10
33271;DHT22;53180;51.344;6.152;2022-10-16T13:43:43;18.50;72.10
33271;DHT22;53180;51.344;6.152;2022-10-16T13:46:15;18.50;71.10
33271;DHT22;53180;51.344;6.152;2022-10-16T13:48:55;18.50;70.90
33271;DHT22;53180;51.344;6.152;2022-10-16T13:51:25;18.50;71.40
33271;DHT22;53180;51.344;6.152;2022-10-16T13:53:55;18.50;72.00
33271;DHT22;53180;51.344;6.152;2022-10-16T13:56:28;18.40;71.40
33271;DHT22;53180;51.344;6.152;2022-10-16T13:59:01;18.40;71.30
33271;DHT22;53180;51.344;6.152;2022-10-16T14:01:31;18.30;72.40
33271;DHT22;53180;51.344;6.152;2022-10-16T14:04:03;18.30;72.60
33271;DHT22;53180;51.344;6.152;2022-10-16T14:06:33;18.30;73.10
33271;DHT22;53180;51.344;6.152;2022-10-16T14:09:06;18.30;71.80
33271;DHT22;53180;51.344;6.152;2022-10-16T14:11:45;18.40;72.40
33271;DHT22;53180;51.344;6.152;2022-10-16T14:14:16;18.30;71.70
33271;DHT22;53180;51.344;6.152;2022-10-16T14:16:44;18.30;72.60
33271;DHT22;53180;51.344;6.152;2022-10-16T14:19:18;18.30;72.50
33271;DHT22;53180;51.344;6.152;2022-10-16T14:21:50;18.30;72.40
33271;DHT22;53180;51.344;6.152;2022-10-16T14:24:26;18.30;72.70
33271;DHT22;53180;51.344;6.152;2022-10-16T14:26:57;18.20;73.20
33271;DHT22;53180;51.344;6.152;2022-10-16T14:29:27;18.20;73.10
33271;DHT22;53180;51.344;6.152;2022-10-16T14:31:59;18.20;73.60
33271;DHT22;53180;51.344;6.152;2022-10-16T14:34:30;18.20;73.30
33271;DHT22;53180;51.344;6.152;2022-10-16T14:37:02;18.10;73.50
33271;DHT22;53180;51.344;6.152;2022-10-16T14:39:35;18.10;73.30
33271;DHT22;53180;51.344;6.152;2022-10-16T14:42:14;18.10;74.00
33271;DHT22;53180;51.344;6.152;2022-10-16T14:44:46;18.10;74.30
33271;DHT22;53180;51.344;6.152;2022-10-16T14:47:18;18.10;74.50
33271;DHT22;53180;51.344;6.152;2022-10-16T14:49:52;18.10;74.40
33271;DHT22;53180;51.344;6.152;2022-10-16T14:52:21;18.00;74.70
33271;DHT22;53180;51.344;6.152;2022-10-16T14:54:50;18.00;74.90
33271;DHT22;53180;51.344;6.152;2022-10-16T14:57:24;18.00;75.40
33271;DHT22;53180;51.344;6.152;2022-10-16T14:59:55;18.00;76.50
33271;DHT22;53180;51.344;6.152;2022-10-16T15:02:28;18.00;76.80
33271;DHT22;53180;51.344;6.152;2022-10-16T15:04:58;18.00;76.60
33271;DHT22;53180;51.344;6.152;2022-10-16T15:07:35;17.90;77.20
33271;DHT22;53180;51.344;6.152;2022-10-16T15:10:04;17.90;77.60
33271;DHT22;53180;51.344;6.152;2022-10-16T15:12:34;17.90;77.00
33271;DHT22;53180;51.344;6.152;2022-10-16T15:15:21;17.90;77.20
33271;DHT22;53180;51.344;6.152;2022-10-16T15:17:54;17.90;77.30
33271;DHT22;53180;51.344;6.152;2022-10-16T15:20:24;17.80;78.00
33271;DHT22;53180;51.344;6.152;2022-10-16T15:22:54;17.80;77.70
33271;DHT22;53180;51.344;6.152;2022-10-16T15:25:33;17.90;77.60
33271;DHT22;53180;51.344;6.152;2022-10-16T15:28:04;17.80;77.70
33271;DHT22;53180;51.344;6.152;2022-10-16T15:30:34;17.80;77.50
33271;DHT22;53180;51.344;6.152;2022-10-16T15:33:03;17.80;78.50
33271;DHT22;53180;51.344;6.152;2022-10-16T15:35:32;17.80;78.80
33271;DHT22;53180;51.344;6.152;2022-10-16T15:38:01;17.70;79.40
33271;DHT22;53180;51.344;6.152;2022-10-16T15:40:29;17.70;79.40
33271;DHT22;53180;51.344;6.152;2022-10-16T15:42:57;17.70;78.80
33271;DHT22;53180;51.344;6.152;2022-10-16T15:45:27;17.70;78.90
33271;DHT22;53180;51.344;6.152;2022-10-16T15:47:55;17.70;78.90
33271;DHT22;53180;51.344;6.152;2022-10-16T15:50:24;17.70;79.10
33271;DHT22;53180;51.344;6.152;2022-10-16T15:52:52;17.50;79.70
33271;DHT22;53180;51.344;6.152;2022-10-16T15:55:20;17.50;80.10
33271;DHT22;53180;51.344;6.152;2022-10-16T15:57:49;17.40;80.50
33271;DHT22;53180;51.344;6.152;2022-10-16T16:00:18;17.40;80.70
33271;DHT22;53180;51.344;6.152;2022-10-16T16:02:53;17.30;81.00
33271;DHT22;53180;51.344;6.152;2022-10-16T16:05:22;17.30;81.40
33271;DHT22;53180;51.344;6.152;2022-10-16T16:07:50;17.30;81.40
33271;DHT22;53180;51.344;6.152;2022-10-16T16:10:19;17.20;81.70
33271;DHT22;53180;51.344;6.152;2022-10-16T16:12:49;17.20;81.50